sensor_id;sensor_type;location;lat;lon;timestamp;P1;durP1;ratioP1;P2;durP2;ratioP2
68449;SDS011;55434;39.570;2.652;2022-08-01T00:01:49;7.55;;;2.10;;
68449;SDS011;55434;39.570;2.652;2022-08-01T00:04:15;10.73;;;2.20;;
68449;SDS011;55434;39.570;2.652;2022-08-01T00:06:41;6.82;;;2.47;;
68449;SDS011;55434;39.570;2.652;2022-08-01T00:09:06;7.80;;;2.40;;
68449;SDS011;55434;39.570;2.652;2022-08-01T00:11:32;5.93;;;2.33;;
68449;SDS011;55434;39.570;2.652;2022-08-01T00:13:57;6.47;;;2.10;;
68449;SDS011;55434;39.570;2.652;2022-08-01T00:16:23;8.07;;;2.30;;
68449;SDS011;55434;39.570;2.652;2022-08-01T00:18:49;9.43;;;2.40;;
68449;SDS011;55434;39.570;2.652;2022-08-01T00:21:16;6.90;;;2.40;;
68449;SDS011;55434;39.570;2.652;2022-08-01T00:23:42;7.93;;;2.90;;
68449;SDS011;55434;39.570;2.652;2022-08-01T00:26:10;8.15;;;3.33;;
68449;SDS011;55434;39.570;2.652;2022-08-01T00:28:36;8.48;;;2.78;;
68449;SDS011;55434;39.570;2.652;2022-08-01T00:31:01;6.67;;;3.17;;
68449;SDS011;55434;39.570;2.652;2022-08-01T00:33:27;8.77;;;2.80;;
68449;SDS011;55434;39.570;2.652;2022-08-01T00:35:52;7.40;;;2.92;;
68449;SDS011;55434;39.570;2.652;2022-08-01T00:38:18;9.37;;;2.60;;
68449;SDS011;55434;39.570;2.652;2022-08-01T00:40:43;6.50;;;2.80;;
68449;SDS011;55434;39.570;2.652;2022-08-01T00:43:09;6.80;;;2.60;;
68449;SDS011;55434;39.570;2.652;2022-08-01T00:45:34;7.13;;;3.00;;
68449;SDS011;55434;39.570;2.652;2022-08-01T00:48:00;9.37;;;3.17;;
68449;SDS011;55434;39.570;2.652;2022-08-01T00:50:25;8.45;;;3.00;;
68449;SDS011;55434;39.570;2.652;2022-08-01T00:52:51;6.80;;;2.50;;
68449;SDS011;55434;39.570;2.652;2022-08-01T00:55:17;7.28;;;2.92;;
68449;SDS011;55434;39.570;2.652;2022-08-01T00:57:43;5.93;;;3.10;;
68449;SDS011;55434;39.570;2.652;2022-08-01T01:00:09;7.22;;;3.13;;
68449;SDS011;55434;39.570;2.652;2022-08-01T01:02:35;10.93;;;3.28;;
68449;SDS011;55434;39.570;2.652;2022-08-01T01:05:01;8.43;;;3.10;;
68449;SDS011;55434;39.570;2.652;2022-08-01T01:13:05;7.40;;;2.60;;
68449;SDS011;55434;39.570;2.652;2022-08-01T01:15:37;7.43;;;2.60;;
68449;SDS011;55434;39.570;2.652;2022-08-01T01:18:13;6.88;;;3.03;;
68449;SDS011;55434;39.570;2.652;2022-08-01T01:20:45;8.75;;;3.42;;
68449;SDS011;55434;39.570;2.652;2022-08-01T01:29:03;6.60;;;3.03;;
68449;SDS011;55434;39.570;2.652;2022-08-01T01:32:02;7.75;;;2.80;;
68449;SDS011;55434;39.570;2.652;2022-08-01T01:34:29;7.30;;;3.35;;
68449;SDS011;55434;39.570;2.652;2022-08-01T01:36:58;8.52;;;2.90;;
68449;SDS011;55434;39.570;2.652;2022-08-01T01:39:26;6.20;;;2.80;;
68449;SDS011;55434;39.570;2.652;2022-08-01T01:41:54;7.63;;;3.37;;
68449;SDS011;55434;39.570;2.652;2022-08-01T01:44:21;5.03;;;2.63;;
68449;SDS011;55434;39.570;2.652;2022-08-01T01:46:47;6.47;;;3.10;;
68449;SDS011;55434;39.570;2.652;2022-08-01T01:49:13;6.20;;;2.55;;
68449;SDS011;55434;39.570;2.652;2022-08-01T01:51:40;9.05;;;2.75;;
68449;SDS011;55434;39.570;2.652;2022-08-01T01:54:08;8.40;;;2.80;;
68449;SDS011;55434;39.570;2.652;2022-08-01T01:56:34;8.93;;;3.47;;
68449;SDS011;55434;39.570;2.652;2022-08-01T01:59:13;8.33;;;3.20;;
68449;SDS011;55434;39.570;2.652;2022-08-01T02:01:43;8.30;;;3.00;;
68449;SDS011;55434;39.570;2.652;2022-08-01T02:04:10;13.55;;;4.40;;
68449;SDS011;55434;39.570;2.652;2022-08-01T02:06:37;7.32;;;3.45;;
68449;SDS011;55434;39.570;2.652;2022-08-01T02:09:04;6.82;;;3.35;;
68449;SDS011;55434;39.570;2.652;2022-08-01T02:11:32;8.73;;;3.27;;
68449;SDS011;55434;39.570;2.652;2022-08-01T02:14:00;9.73;;;3.38;;
68449;SDS011;55434;39.570;2.652;2022-08-01T02:16:34;6.72;;;3.90;;
68449;SDS011;55434;39.570;2.652;2022-08-01T02:19:01;8.45;;;3.95;;
68449;SDS011;55434;39.570;2.652;2022-08-01T02:21:28;11.95;;;4.30;;
68449;SDS011;55434;39.570;2.652;2022-08-01T02:24:00;9.07;;;3.60;;
68449;SDS011;55434;39.570;2.652;2022-08-01T02:26:33;7.80;;;3.63;;
68449;SDS011;55434;39.570;2.652;2022-08-01T02:29:03;10.50;;;3.47;;
68449;SDS011;55434;39.570;2.652;2022-08-01T02:31:32;11.30;;;3.20;;
68449;SDS011;55434;39.570;2.652;2022-08-01T02:34:04;10.65;;;3.47;;
68449;SDS011;55434;39.570;2.652;2022-08-01T02:36:33;8.67;;;3.60;;
68449;SDS011;55434;39.570;2.652;2022-08-01T02:39:00;8.52;;;3.80;;
68449;SDS011;55434;39.570;2.652;2022-08-01T02:41:38;6.70;;;3.63;;
68449;SDS011;55434;39.570;2.652;2022-08-01T02:44:08;7.50;;;3.72;;
68449;SDS011;55434;39.570;2.652;2022-08-01T02:46:49;6.60;;;3.38;;
68449;SDS011;55434;39.570;2.652;2022-08-01T02:49:21;9.00;;;3.63;;
68449;SDS011;55434;39.570;2.652;2022-08-01T02:51:48;8.02;;;3.88;;
68449;SDS011;55434;39.570;2.652;2022-08-01T02:54:16;10.48;;;3.67;;
68449;SDS011;55434;39.570;2.652;2022-08-01T02:56:43;7.75;;;4.10;;
68449;SDS011;55434;39.570;2.652;2022-08-01T02:59:12;7.45;;;3.33;;
68449;SDS011;55434;39.570;2.652;2022-08-01T03:01:42;11.07;;;3.63;;
68449;SDS011;55434;39.570;2.652;2022-08-01T03:04:10;9.38;;;3.53;;
68449;SDS011;55434;39.570;2.652;2022-08-01T03:06:36;9.23;;;3.80;;
68449;SDS011;55434;39.570;2.652;2022-08-01T03:09:03;7.10;;;3.42;;
68449;SDS011;55434;39.570;2.652;2022-08-01T03:11:30;7.40;;;3.80;;
68449;SDS011;55434;39.570;2.652;2022-08-01T03:13:58;10.00;;;3.87;;
68449;SDS011;55434;39.570;2.652;2022-08-01T03:16:27;7.43;;;3.88;;
68449;SDS011;55434;39.570;2.652;2022-08-01T03:18:53;8.40;;;3.75;;
68449;SDS011;55434;39.570;2.652;2022-08-01T03:21:22;8.27;;;3.80;;
68449;SDS011;55434;39.570;2.652;2022-08-01T03:23:49;8.70;;;3.40;;
68449;SDS011;55434;39.570;2.652;2022-08-01T03:26:16;10.63;;;3.47;;
68449;SDS011;55434;39.570;2.652;2022-08-01T03:28:44;7.88;;;3.47;;
68449;SDS011;55434;39.570;2.652;2022-08-01T03:31:13;6.82;;;3.40;;
68449;SDS011;55434;39.570;2.652;2022-08-01T03:33:40;8.45;;;3.17;;
68449;SDS011;55434;39.570;2.652;2022-08-01T03:36:05;8.70;;;3.03;;
68449;SDS011;55434;39.570;2.652;2022-08-01T03:38:36;9.15;;;3.33;;
68449;SDS011;55434;39.570;2.652;2022-08-01T03:41:07;8.63;;;3.08;;
68449;SDS011;55434;39.570;2.652;2022-08-01T03:43:40;7.13;;;3.03;;
68449;SDS011;55434;39.570;2.652;2022-08-01T03:46:11;8.67;;;2.97;;
68449;SDS011;55434;39.570;2.652;2022-08-01T03:48:43;10.88;;;2.97;;
68449;SDS011;55434;39.570;2.652;2022-08-01T03:51:13;8.20;;;3.40;;
68449;SDS011;55434;39.570;2.652;2022-08-01T03:53:41;7.50;;;2.72;;
68449;SDS011;55434;39.570;2.652;2022-08-01T03:56:09;7.70;;;3.22;;
68449;SDS011;55434;39.570;2.652;2022-08-01T03:58:38;5.97;;;3.00;;
68449;SDS011;55434;39.570;2.652;2022-08-01T04:01:05;6.35;;;3.03;;
68449;SDS011;55434;39.570;2.652;2022-08-01T04:03:32;6.13;;;2.80;;
68449;SDS011;55434;39.570;2.652;2022-08-01T04:05:58;7.32;;;2.70;;
68449;SDS011;55434;39.570;2.652;2022-08-01T04:08:33;7.80;;;3.03;;
68449;SDS011;55434;39.570;2.652;2022-08-01T04:11:07;7.28;;;2.58;;
68449;SDS011;55434;39.570;2.652;2022-08-01T04:13:33;6.97;;;2.70;;
68449;SDS011;55434;39.570;2.652;2022-08-01T04:15:59;8.85;;;2.85;;
68449;SDS011;55434;39.570;2.652;2022-08-01T04:18:25;7.37;;;2.87;;
68449;SDS011;55434;39.570;2.652;2022-08-01T04:20:51;8.35;;;2.72;;
68449;SDS011;55434;39.570;2.652;2022-08-01T04:23:17;5.37;;;2.40;;
68449;SDS011;55434;39.570;2.652;2022-08-01T04:25:48;6.55;;;3.00;;
68449;SDS011;55434;39.570;2.652;2022-08-01T04:28:15;6.05;;;2.67;;
68449;SDS011;55434;39.570;2.652;2022-08-01T04:30:43;7.70;;;2.50;;
68449;SDS011;55434;39.570;2.652;2022-08-01T04:33:11;8.87;;;2.57;;
68449;SDS011;55434;39.570;2.652;2022-08-01T04:35:41;7.28;;;2.72;;
68449;SDS011;55434;39.570;2.652;2022-08-01T04:38:10;6.68;;;2.50;;
68449;SDS011;55434;39.570;2.652;2022-08-01T04:40:39;6.38;;;2.38;;
68449;SDS011;55434;39.570;2.652;2022-08-01T04:43:06;7.05;;;2.55;;
68449;SDS011;55434;39.570;2.652;2022-08-01T04:45:33;7.27;;;2.50;;
68449;SDS011;55434;39.570;2.652;2022-08-01T04:48:00;7.55;;;2.60;;
68449;SDS011;55434;39.570;2.652;2022-08-01T04:50:26;6.22;;;2.47;;
68449;SDS011;55434;39.570;2.652;2022-08-01T04:52:52;6.65;;;2.28;;
68449;SDS011;55434;39.570;2.652;2022-08-01T04:55:18;10.00;;;2.47;;
68449;SDS011;55434;39.570;2.652;2022-08-01T04:57:44;9.15;;;2.90;;
68449;SDS011;55434;39.570;2.652;2022-08-01T05:00:11;8.67;;;2.43;;
68449;SDS011;55434;39.570;2.652;2022-08-01T05:02:37;8.57;;;2.50;;
68449;SDS011;55434;39.570;2.652;2022-08-01T05:05:03;8.05;;;2.20;;
68449;SDS011;55434;39.570;2.652;2022-08-01T05:07:31;6.07;;;2.70;;
68449;SDS011;55434;39.570;2.652;2022-08-01T05:09:58;6.97;;;2.20;;
68449;SDS011;55434;39.570;2.652;2022-08-01T05:12:23;7.88;;;2.40;;
68449;SDS011;55434;39.570;2.652;2022-08-01T05:14:49;6.83;;;2.30;;
68449;SDS011;55434;39.570;2.652;2022-08-01T05:17:15;7.75;;;2.85;;
68449;SDS011;55434;39.570;2.652;2022-08-01T05:19:41;13.20;;;3.10;;
68449;SDS011;55434;39.570;2.652;2022-08-01T05:22:08;9.37;;;2.30;;
68449;SDS011;55434;39.570;2.652;2022-08-01T05:24:35;12.55;;;2.75;;
68449;SDS011;55434;39.570;2.652;2022-08-01T05:27:02;8.40;;;2.47;;
68449;SDS011;55434;39.570;2.652;2022-08-01T05:29:30;12.00;;;3.03;;
68449;SDS011;55434;39.570;2.652;2022-08-01T05:31:56;7.40;;;2.55;;
68449;SDS011;55434;39.570;2.652;2022-08-01T05:34:24;6.50;;;1.90;;
68449;SDS011;55434;39.570;2.652;2022-08-01T05:36:50;6.55;;;2.25;;
68449;SDS011;55434;39.570;2.652;2022-08-01T05:39:16;9.55;;;2.70;;
68449;SDS011;55434;39.570;2.652;2022-08-01T05:41:42;8.73;;;2.63;;
68449;SDS011;55434;39.570;2.652;2022-08-01T05:44:07;9.93;;;3.05;;
68449;SDS011;55434;39.570;2.652;2022-08-01T05:46:33;8.07;;;2.60;;
68449;SDS011;55434;39.570;2.652;2022-08-01T05:49:00;6.78;;;2.30;;
68449;SDS011;55434;39.570;2.652;2022-08-01T05:51:27;5.65;;;2.70;;
68449;SDS011;55434;39.570;2.652;2022-08-01T05:53:52;6.13;;;2.63;;
68449;SDS011;55434;39.570;2.652;2022-08-01T05:56:19;7.60;;;2.67;;
68449;SDS011;55434;39.570;2.652;2022-08-01T05:58:45;6.32;;;2.25;;
68449;SDS011;55434;39.570;2.652;2022-08-01T06:01:11;6.23;;;2.30;;
68449;SDS011;55434;39.570;2.652;2022-08-01T06:03:37;6.57;;;2.00;;
68449;SDS011;55434;39.570;2.652;2022-08-01T06:06:02;9.27;;;2.90;;
68449;SDS011;55434;39.570;2.652;2022-08-01T06:08:29;10.68;;;2.58;;
68449;SDS011;55434;39.570;2.652;2022-08-01T06:10:55;10.38;;;2.65;;
68449;SDS011;55434;39.570;2.652;2022-08-01T06:13:21;12.20;;;3.13;;
68449;SDS011;55434;39.570;2.652;2022-08-01T06:15:47;8.10;;;2.77;;
68449;SDS011;55434;39.570;2.652;2022-08-01T06:18:13;12.75;;;2.60;;
68449;SDS011;55434;39.570;2.652;2022-08-01T06:20:39;7.87;;;2.40;;
68449;SDS011;55434;39.570;2.652;2022-08-01T06:23:05;9.07;;;2.28;;
68449;SDS011;55434;39.570;2.652;2022-08-01T06:25:30;9.93;;;2.75;;
68449;SDS011;55434;39.570;2.652;2022-08-01T06:27:56;13.83;;;2.57;;
68449;SDS011;55434;39.570;2.652;2022-08-01T06:30:22;8.55;;;2.50;;
68449;SDS011;55434;39.570;2.652;2022-08-01T06:32:48;10.00;;;3.57;;
68449;SDS011;55434;39.570;2.652;2022-08-01T06:35:14;12.98;;;2.72;;
68449;SDS011;55434;39.570;2.652;2022-08-01T06:37:40;10.70;;;2.97;;
68449;SDS011;55434;39.570;2.652;2022-08-01T06:40:07;9.73;;;2.77;;
68449;SDS011;55434;39.570;2.652;2022-08-01T06:42:34;9.45;;;2.60;;
68449;SDS011;55434;39.570;2.652;2022-08-01T06:45:02;12.23;;;2.83;;
68449;SDS011;55434;39.570;2.652;2022-08-01T06:47:28;12.43;;;2.40;;
68449;SDS011;55434;39.570;2.652;2022-08-01T06:49:53;13.45;;;2.58;;
68449;SDS011;55434;39.570;2.652;2022-08-01T06:52:19;10.53;;;2.33;;
68449;SDS011;55434;39.570;2.652;2022-08-01T06:54:44;10.30;;;2.37;;
68449;SDS011;55434;39.570;2.652;2022-08-01T06:57:10;7.88;;;2.60;;
68449;SDS011;55434;39.570;2.652;2022-08-01T06:59:35;8.70;;;2.97;;
68449;SDS011;55434;39.570;2.652;2022-08-01T07:02:01;9.07;;;2.77;;
68449;SDS011;55434;39.570;2.652;2022-08-01T07:04:26;12.63;;;2.47;;
68449;SDS011;55434;39.570;2.652;2022-08-01T07:06:52;7.07;;;2.22;;
68449;SDS011;55434;39.570;2.652;2022-08-01T07:09:17;9.17;;;2.80;;
68449;SDS011;55434;39.570;2.652;2022-08-01T07:11:43;7.50;;;2.27;;
68449;SDS011;55434;39.570;2.652;2022-08-01T07:14:08;8.52;;;2.60;;
68449;SDS011;55434;39.570;2.652;2022-08-01T07:16:34;9.40;;;2.63;;
68449;SDS011;55434;39.570;2.652;2022-08-01T07:18:59;8.13;;;2.37;;
68449;SDS011;55434;39.570;2.652;2022-08-01T07:21:25;12.43;;;2.60;;
68449;SDS011;55434;39.570;2.652;2022-08-01T07:23:50;8.13;;;2.67;;
68449;SDS011;55434;39.570;2.652;2022-08-01T07:26:16;7.30;;;2.40;;
68449;SDS011;55434;39.570;2.652;2022-08-01T07:28:42;9.32;;;2.80;;
68449;SDS011;55434;39.570;2.652;2022-08-01T07:31:08;9.97;;;3.30;;
68449;SDS011;55434;39.570;2.652;2022-08-01T07:33:33;13.83;;;3.03;;
68449;SDS011;55434;39.570;2.652;2022-08-01T07:35:59;12.23;;;2.88;;
68449;SDS011;55434;39.570;2.652;2022-08-01T07:41:06;8.65;;;2.60;;
68449;SDS011;55434;39.570;2.652;2022-08-01T07:43:31;10.73;;;2.80;;
68449;SDS011;55434;39.570;2.652;2022-08-01T07:45:57;7.97;;;2.60;;
68449;SDS011;55434;39.570;2.652;2022-08-01T07:48:22;10.75;;;3.08;;
68449;SDS011;55434;39.570;2.652;2022-08-01T07:50:52;8.10;;;2.50;;
68449;SDS011;55434;39.570;2.652;2022-08-01T07:53:17;8.27;;;2.90;;
68449;SDS011;55434;39.570;2.652;2022-08-01T07:55:43;11.13;;;2.85;;
68449;SDS011;55434;39.570;2.652;2022-08-01T07:58:08;6.93;;;2.50;;
68449;SDS011;55434;39.570;2.652;2022-08-01T08:00:34;8.93;;;2.90;;
68449;SDS011;55434;39.570;2.652;2022-08-01T08:03:00;6.13;;;2.30;;
68449;SDS011;55434;39.570;2.652;2022-08-01T08:05:25;7.17;;;2.70;;
68449;SDS011;55434;39.570;2.652;2022-08-01T08:07:52;9.70;;;2.67;;
68449;SDS011;55434;39.570;2.652;2022-08-01T08:10:17;9.43;;;2.92;;
68449;SDS011;55434;39.570;2.652;2022-08-01T08:12:43;10.73;;;3.23;;
68449;SDS011;55434;39.570;2.652;2022-08-01T08:15:11;9.38;;;3.15;;
68449;SDS011;55434;39.570;2.652;2022-08-01T08:17:36;7.53;;;2.83;;
68449;SDS011;55434;39.570;2.652;2022-08-01T08:20:03;5.50;;;2.77;;
68449;SDS011;55434;39.570;2.652;2022-08-01T08:22:30;13.00;;;7.47;;
68449;SDS011;55434;39.570;2.652;2022-08-01T08:24:56;10.63;;;7.73;;
68449;SDS011;55434;39.570;2.652;2022-08-01T08:27:21;8.32;;;5.55;;
68449;SDS011;55434;39.570;2.652;2022-08-01T08:29:47;7.00;;;3.67;;
68449;SDS011;55434;39.570;2.652;2022-08-01T08:32:12;8.37;;;3.03;;
68449;SDS011;55434;39.570;2.652;2022-08-01T08:34:38;5.97;;;2.80;;
68449;SDS011;55434;39.570;2.652;2022-08-01T08:37:04;7.20;;;2.50;;
68449;SDS011;55434;39.570;2.652;2022-08-01T08:39:30;8.30;;;3.00;;
68449;SDS011;55434;39.570;2.652;2022-08-01T08:41:58;6.65;;;2.30;;
68449;SDS011;55434;39.570;2.652;2022-08-01T08:44:25;5.82;;;2.50;;
68449;SDS011;55434;39.570;2.652;2022-08-01T08:46:51;5.63;;;2.60;;
68449;SDS011;55434;39.570;2.652;2022-08-01T08:49:24;6.45;;;2.60;;
68449;SDS011;55434;39.570;2.652;2022-08-01T08:51:53;5.35;;;2.55;;
68449;SDS011;55434;39.570;2.652;2022-08-01T08:54:23;6.97;;;2.55;;
68449;SDS011;55434;39.570;2.652;2022-08-01T08:56:50;7.07;;;2.63;;
68449;SDS011;55434;39.570;2.652;2022-08-01T08:59:19;6.78;;;2.78;;
68449;SDS011;55434;39.570;2.652;2022-08-01T09:01:47;6.03;;;2.80;;
68449;SDS011;55434;39.570;2.652;2022-08-01T09:04:13;7.85;;;3.03;;
68449;SDS011;55434;39.570;2.652;2022-08-01T09:06:39;8.93;;;3.25;;
68449;SDS011;55434;39.570;2.652;2022-08-01T09:09:06;8.23;;;3.28;;
68449;SDS011;55434;39.570;2.652;2022-08-01T09:11:33;7.60;;;2.95;;
68449;SDS011;55434;39.570;2.652;2022-08-01T09:14:09;6.32;;;2.70;;
68449;SDS011;55434;39.570;2.652;2022-08-01T09:16:39;8.25;;;2.97;;
68449;SDS011;55434;39.570;2.652;2022-08-01T09:19:10;10.45;;;3.70;;
68449;SDS011;55434;39.570;2.652;2022-08-01T09:21:40;8.68;;;3.60;;
68449;SDS011;55434;39.570;2.652;2022-08-01T09:24:24;7.90;;;3.80;;
68449;SDS011;55434;39.570;2.652;2022-08-01T09:26:51;10.88;;;3.58;;
68449;SDS011;55434;39.570;2.652;2022-08-01T09:29:18;9.48;;;3.85;;
68449;SDS011;55434;39.570;2.652;2022-08-01T09:31:46;8.85;;;4.30;;
68449;SDS011;55434;39.570;2.652;2022-08-01T09:34:12;8.23;;;4.10;;
68449;SDS011;55434;39.570;2.652;2022-08-01T09:39:19;10.20;;;4.82;;
68449;SDS011;55434;39.570;2.652;2022-08-01T09:41:46;8.85;;;4.93;;
68449;SDS011;55434;39.570;2.652;2022-08-01T09:44:17;13.88;;;5.28;;
68449;SDS011;55434;39.570;2.652;2022-08-01T09:46:52;9.45;;;5.30;;
68449;SDS011;55434;39.570;2.652;2022-08-01T09:49:31;10.57;;;5.90;;
68449;SDS011;55434;39.570;2.652;2022-08-01T09:52:15;8.95;;;5.00;;
68449;SDS011;55434;39.570;2.652;2022-08-01T09:54:42;9.45;;;5.50;;
68449;SDS011;55434;39.570;2.652;2022-08-01T09:57:17;12.38;;;5.60;;
68449;SDS011;55434;39.570;2.652;2022-08-01T09:59:48;12.05;;;5.47;;
68449;SDS011;55434;39.570;2.652;2022-08-01T10:02:43;8.40;;;5.13;;
68449;SDS011;55434;39.570;2.652;2022-08-01T10:05:07;11.05;;;6.60;;
68449;SDS011;55434;39.570;2.652;2022-08-01T10:07:58;9.75;;;6.43;;
68449;SDS011;55434;39.570;2.652;2022-08-01T10:10:28;15.40;;;6.35;;
68449;SDS011;55434;39.570;2.652;2022-08-01T10:13:11;9.15;;;5.68;;
68449;SDS011;55434;39.570;2.652;2022-08-01T10:15:40;11.70;;;5.45;;
68449;SDS011;55434;39.570;2.652;2022-08-01T10:18:07;9.38;;;5.00;;
68449;SDS011;55434;39.570;2.652;2022-08-01T10:20:41;7.97;;;5.03;;
68449;SDS011;55434;39.570;2.652;2022-08-01T10:23:07;11.90;;;5.95;;
68449;SDS011;55434;39.570;2.652;2022-08-01T10:25:34;8.45;;;6.13;;
68449;SDS011;55434;39.570;2.652;2022-08-01T10:28:21;10.35;;;7.43;;
68449;SDS011;55434;39.570;2.652;2022-08-01T11:03:36;11.75;;;9.70;;
68449;SDS011;55434;39.570;2.652;2022-08-01T11:06:07;8.27;;;6.50;;
68449;SDS011;55434;39.570;2.652;2022-08-01T11:23:59;8.35;;;6.40;;
68449;SDS011;55434;39.570;2.652;2022-08-01T11:27:30;16.73;;;9.00;;
68449;SDS011;55434;39.570;2.652;2022-08-01T11:32:34;10.60;;;6.27;;
68449;SDS011;55434;39.570;2.652;2022-08-01T11:35:16;7.93;;;5.47;;
68449;SDS011;55434;39.570;2.652;2022-08-01T11:37:43;9.55;;;6.88;;
68449;SDS011;55434;39.570;2.652;2022-08-01T11:40:17;7.70;;;6.45;;
68449;SDS011;55434;39.570;2.652;2022-08-01T11:43:15;11.90;;;7.50;;
68449;SDS011;55434;39.570;2.652;2022-08-01T11:48:39;11.00;;;7.28;;
68449;SDS011;55434;39.570;2.652;2022-08-01T12:27:26;13.18;;;6.90;;
68449;SDS011;55434;39.570;2.652;2022-08-01T12:29:53;13.65;;;7.60;;
68449;SDS011;55434;39.570;2.652;2022-08-01T12:32:29;12.98;;;7.18;;
68449;SDS011;55434;39.570;2.652;2022-08-01T12:35:10;9.97;;;6.73;;
68449;SDS011;55434;39.570;2.652;2022-08-01T12:37:48;9.02;;;6.15;;
68449;SDS011;55434;39.570;2.652;2022-08-01T12:42:45;9.30;;;6.22;;
68449;SDS011;55434;39.570;2.652;2022-08-01T12:45:20;10.43;;;7.03;;
68449;SDS011;55434;39.570;2.652;2022-08-01T12:47:55;10.17;;;6.13;;
68449;SDS011;55434;39.570;2.652;2022-08-01T12:50:41;9.70;;;7.20;;
68449;SDS011;55434;39.570;2.652;2022-08-01T12:53:20;7.50;;;6.38;;
68449;SDS011;55434;39.570;2.652;2022-08-01T12:59:38;12.63;;;7.63;;
68449;SDS011;55434;39.570;2.652;2022-08-01T13:02:08;8.73;;;6.70;;
68449;SDS011;55434;39.570;2.652;2022-08-01T13:07:52;9.57;;;8.55;;
68449;SDS011;55434;39.570;2.652;2022-08-01T13:10:35;8.95;;;7.30;;
68449;SDS011;55434;39.570;2.652;2022-08-01T13:13:02;11.13;;;5.65;;
68449;SDS011;55434;39.570;2.652;2022-08-01T13:15:36;7.10;;;5.80;;
68449;SDS011;55434;39.570;2.652;2022-08-01T13:26:59;12.57;;;6.50;;
68449;SDS011;55434;39.570;2.652;2022-08-01T13:30:09;9.63;;;4.73;;
68449;SDS011;55434;39.570;2.652;2022-08-01T13:40:48;7.45;;;4.88;;
68449;SDS011;55434;39.570;2.652;2022-08-01T13:43:22;9.87;;;4.77;;
68449;SDS011;55434;39.570;2.652;2022-08-01T13:45:50;6.90;;;5.03;;
68449;SDS011;55434;39.570;2.652;2022-08-01T13:48:16;7.93;;;4.68;;
68449;SDS011;55434;39.570;2.652;2022-08-01T13:50:41;9.23;;;5.03;;
68449;SDS011;55434;39.570;2.652;2022-08-01T13:53:07;6.43;;;5.20;;
68449;SDS011;55434;39.570;2.652;2022-08-01T13:55:34;6.82;;;4.85;;
68449;SDS011;55434;39.570;2.652;2022-08-01T13:57:59;8.40;;;4.93;;
68449;SDS011;55434;39.570;2.652;2022-08-01T14:00:25;9.40;;;5.07;;
68449;SDS011;55434;39.570;2.652;2022-08-01T14:02:51;9.43;;;5.20;;
68449;SDS011;55434;39.570;2.652;2022-08-01T14:05:16;7.73;;;4.50;;
68449;SDS011;55434;39.570;2.652;2022-08-01T14:07:42;7.88;;;5.30;;
68449;SDS011;55434;39.570;2.652;2022-08-01T14:10:09;6.75;;;4.90;;
68449;SDS011;55434;39.570;2.652;2022-08-01T14:12:35;6.30;;;4.43;;
68449;SDS011;55434;39.570;2.652;2022-08-01T14:15:00;7.27;;;4.43;;
68449;SDS011;55434;39.570;2.652;2022-08-01T14:17:26;7.00;;;4.22;;
68449;SDS011;55434;39.570;2.652;2022-08-01T14:19:52;7.90;;;4.97;;
68449;SDS011;55434;39.570;2.652;2022-08-01T14:22:17;7.40;;;4.22;;
68449;SDS011;55434;39.570;2.652;2022-08-01T14:24:43;8.27;;;4.33;;
68449;SDS011;55434;39.570;2.652;2022-08-01T14:27:08;9.40;;;4.33;;
68449;SDS011;55434;39.570;2.652;2022-08-01T14:29:34;12.98;;;4.13;;
68449;SDS011;55434;39.570;2.652;2022-08-01T14:32:00;9.33;;;4.20;;
68449;SDS011;55434;39.570;2.652;2022-08-01T14:34:25;8.15;;;4.63;;
68449;SDS011;55434;39.570;2.652;2022-08-01T14:36:51;6.60;;;4.90;;
68449;SDS011;55434;39.570;2.652;2022-08-01T14:39:18;8.35;;;5.10;;
68449;SDS011;55434;39.570;2.652;2022-08-01T14:41:43;7.67;;;5.40;;
68449;SDS011;55434;39.570;2.652;2022-08-01T14:44:09;8.80;;;6.03;;
68449;SDS011;55434;39.570;2.652;2022-08-01T14:46:34;6.40;;;5.00;;
68449;SDS011;55434;39.570;2.652;2022-08-01T14:49:00;8.93;;;5.17;;
68449;SDS011;55434;39.570;2.652;2022-08-01T14:51:26;11.87;;;5.17;;
68449;SDS011;55434;39.570;2.652;2022-08-01T14:53:51;7.47;;;5.63;;
68449;SDS011;55434;39.570;2.652;2022-08-01T14:56:17;8.77;;;6.10;;
68449;SDS011;55434;39.570;2.652;2022-08-01T14:58:43;9.23;;;5.20;;
68449;SDS011;55434;39.570;2.652;2022-08-01T15:01:09;9.10;;;6.00;;
68449;SDS011;55434;39.570;2.652;2022-08-01T15:03:34;8.23;;;5.65;;
68449;SDS011;55434;39.570;2.652;2022-08-01T15:06:00;8.23;;;6.17;;
68449;SDS011;55434;39.570;2.652;2022-08-01T15:08:26;7.43;;;5.38;;
68449;SDS011;55434;39.570;2.652;2022-08-01T15:10:52;9.43;;;5.40;;
68449;SDS011;55434;39.570;2.652;2022-08-01T15:13:17;8.88;;;5.60;;
68449;SDS011;55434;39.570;2.652;2022-08-01T15:15:43;9.30;;;5.43;;
68449;SDS011;55434;39.570;2.652;2022-08-01T15:18:08;8.40;;;5.90;;
68449;SDS011;55434;39.570;2.652;2022-08-01T15:20:34;8.75;;;5.05;;
68449;SDS011;55434;39.570;2.652;2022-08-01T15:22:59;8.70;;;5.70;;
68449;SDS011;55434;39.570;2.652;2022-08-01T15:25:25;6.20;;;4.80;;
68449;SDS011;55434;39.570;2.652;2022-08-01T15:27:51;6.47;;;4.53;;
68449;SDS011;55434;39.570;2.652;2022-08-01T15:30:16;8.23;;;5.30;;
68449;SDS011;55434;39.570;2.652;2022-08-01T15:32:42;6.38;;;4.40;;
68449;SDS011;55434;39.570;2.652;2022-08-01T15:35:08;9.55;;;5.28;;
68449;SDS011;55434;39.570;2.652;2022-08-01T15:37:35;7.57;;;5.40;;
68449;SDS011;55434;39.570;2.652;2022-08-01T15:40:02;8.18;;;5.93;;
68449;SDS011;55434;39.570;2.652;2022-08-01T15:42:39;8.10;;;5.03;;
68449;SDS011;55434;39.570;2.652;2022-08-01T15:45:07;6.97;;;4.43;;
68449;SDS011;55434;39.570;2.652;2022-08-01T15:47:35;7.05;;;5.75;;
68449;SDS011;55434;39.570;2.652;2022-08-01T15:50:07;9.18;;;5.25;;
68449;SDS011;55434;39.570;2.652;2022-08-01T15:52:54;7.22;;;4.82;;
68449;SDS011;55434;39.570;2.652;2022-08-01T15:55:22;6.97;;;4.83;;
68449;SDS011;55434;39.570;2.652;2022-08-01T15:58:04;6.80;;;4.90;;
68449;SDS011;55434;39.570;2.652;2022-08-01T16:00:49;6.60;;;4.40;;
68449;SDS011;55434;39.570;2.652;2022-08-01T16:03:22;8.48;;;5.40;;
68449;SDS011;55434;39.570;2.652;2022-08-01T16:05:57;7.63;;;5.38;;
68449;SDS011;55434;39.570;2.652;2022-08-01T16:08:26;7.80;;;5.23;;
68449;SDS011;55434;39.570;2.652;2022-08-01T16:13:52;8.23;;;5.07;;
68449;SDS011;55434;39.570;2.652;2022-08-01T16:18:55;10.77;;;5.22;;
68449;SDS011;55434;39.570;2.652;2022-08-01T16:21:21;6.70;;;4.33;;
68449;SDS011;55434;39.570;2.652;2022-08-01T16:23:49;7.88;;;4.93;;
68449;SDS011;55434;39.570;2.652;2022-08-01T16:26:17;6.85;;;5.10;;
68449;SDS011;55434;39.570;2.652;2022-08-01T16:28:55;7.50;;;4.60;;
68449;SDS011;55434;39.570;2.652;2022-08-01T16:31:49;7.75;;;5.43;;
68449;SDS011;55434;39.570;2.652;2022-08-01T16:34:19;7.70;;;4.50;;
68449;SDS011;55434;39.570;2.652;2022-08-01T16:37:34;7.15;;;4.20;;
68449;SDS011;55434;39.570;2.652;2022-08-01T16:40:29;8.55;;;4.93;;
68449;SDS011;55434;39.570;2.652;2022-08-01T16:43:11;10.23;;;4.47;;
68449;SDS011;55434;39.570;2.652;2022-08-01T16:45:44;6.97;;;4.38;;
68449;SDS011;55434;39.570;2.652;2022-08-01T16:48:16;6.73;;;3.90;;
68449;SDS011;55434;39.570;2.652;2022-08-01T16:51:14;8.45;;;4.18;;
68449;SDS011;55434;39.570;2.652;2022-08-01T16:54:15;6.72;;;4.30;;
68449;SDS011;55434;39.570;2.652;2022-08-01T17:00:09;7.80;;;3.28;;
68449;SDS011;55434;39.570;2.652;2022-08-01T17:02:51;8.30;;;3.60;;
68449;SDS011;55434;39.570;2.652;2022-08-01T17:05:26;8.70;;;3.40;;
68449;SDS011;55434;39.570;2.652;2022-08-01T17:08:01;6.03;;;3.60;;
68449;SDS011;55434;39.570;2.652;2022-08-01T17:10:42;7.05;;;2.72;;
68449;SDS011;55434;39.570;2.652;2022-08-01T17:13:33;6.18;;;3.40;;
68449;SDS011;55434;39.570;2.652;2022-08-01T17:16:23;7.80;;;3.47;;
68449;SDS011;55434;39.570;2.652;2022-08-01T17:19:29;7.00;;;2.90;;
68449;SDS011;55434;39.570;2.652;2022-08-01T17:24:26;6.00;;;3.10;;